createdAt,value
2023-04-26T00:01:17.751Z,0.90
2023-04-26T00:03:48.688Z,1.80
2023-04-26T00:06:19.548Z,1.00
2023-04-26T00:08:50.401Z,1.20
2023-04-26T00:11:21.180Z,1.70
2023-04-26T00:13:51.848Z,1.10
2023-04-26T00:16:22.567Z,1.60
2023-04-26T00:18:54.705Z,2.40
2023-04-26T00:21:25.577Z,1.20
2023-04-26T00:23:56.376Z,1.30
2023-04-26T00:26:27.117Z,0.80
2023-04-26T00:28:58.264Z,1.20
2023-04-26T00:31:29.232Z,0.80
2023-04-26T00:33:59.821Z,1.00
2023-04-26T00:36:32.376Z,0.90
2023-04-26T00:39:03.007Z,1.30
2023-04-26T00:41:33.624Z,1.30
2023-04-26T00:44:04.658Z,1.10
2023-04-26T00:46:35.487Z,0.90
2023-04-26T00:49:06.294Z,0.80
2023-04-26T00:51:38.233Z,1.20
2023-04-26T00:54:10.188Z,1.20
2023-04-26T00:56:43.160Z,1.10
2023-04-26T00:59:13.932Z,1.30
2023-04-26T01:01:44.634Z,1.60
2023-04-26T01:04:16.106Z,1.60
2023-04-26T01:06:47.214Z,1.40
2023-04-26T01:09:19.054Z,1.00
2023-04-26T01:11:49.696Z,1.50
2023-04-26T01:14:20.496Z,1.70
2023-04-26T01:16:52.412Z,1.10
2023-04-26T01:19:23.452Z,1.20
2023-04-26T01:21:54.206Z,1.50
2023-04-26T01:24:25.006Z,0.80
2023-04-26T01:26:55.724Z,1.20
2023-04-26T01:29:27.107Z,1.60
2023-04-26T01:31:57.708Z,1.20
2023-04-26T01:34:33.308Z,1.00
2023-04-26T01:37:04.022Z,0.90
2023-04-26T01:39:34.783Z,1.10
2023-04-26T01:42:05.996Z,1.30
2023-04-26T01:44:36.636Z,1.10
2023-04-26T01:47:07.346Z,1.40
2023-04-26T01:49:38.080Z,0.70
2023-04-26T01:52:08.923Z,1.30
2023-04-26T01:54:39.636Z,1.30
2023-04-26T01:57:10.488Z,1.30
2023-04-26T01:59:41.292Z,1.10
2023-04-26T02:02:12.022Z,1.00
2023-04-26T02:04:43.037Z,0.90
2023-04-26T02:07:13.654Z,0.90
2023-04-26T02:10:04.572Z,0.70
2023-04-26T02:12:35.305Z,1.10
2023-04-26T02:15:06.884Z,0.80
2023-04-26T02:17:38.756Z,0.80
2023-04-26T02:20:11.588Z,1.00
2023-04-26T02:25:12.385Z,0.90
2023-04-26T02:27:42.999Z,2.00
2023-04-26T02:30:14.560Z,0.60
2023-04-26T02:32:46.208Z,1.50
2023-04-26T02:35:17.165Z,1.20
2023-04-26T02:37:49.015Z,0.90
2023-04-26T02:40:20.496Z,1.70
2023-04-26T02:42:51.451Z,1.40
2023-04-26T02:45:22.869Z,1.00
2023-04-26T02:47:53.573Z,1.80
2023-04-26T02:50:24.619Z,1.40
2023-04-26T02:52:55.626Z,1.50
2023-04-26T02:55:26.709Z,1.70
2023-04-26T02:57:57.402Z,0.90
2023-04-26T03:00:28.629Z,1.00
2023-04-26T03:02:59.727Z,1.30
2023-04-26T03:05:30.866Z,0.90
2023-04-26T03:08:02.056Z,1.30
2023-04-26T03:10:32.974Z,1.90
2023-04-26T03:13:04.512Z,0.90
2023-04-26T03:15:35.314Z,1.20
2023-04-26T03:18:06.138Z,1.40
2023-04-26T03:20:37.035Z,0.90
2023-04-26T03:23:08.266Z,0.80
2023-04-26T03:25:38.920Z,1.00
2023-04-26T03:28:09.691Z,1.70
2023-04-26T03:30:40.246Z,0.90
2023-04-26T03:33:11.053Z,1.20
2023-04-26T03:35:41.755Z,1.30
2023-04-26T03:38:12.517Z,1.40
2023-04-26T03:40:44.000Z,1.10
2023-04-26T03:43:15.112Z,1.00
2023-04-26T03:45:47.654Z,1.10
2023-04-26T03:48:18.374Z,1.40
2023-04-26T03:50:49.769Z,1.60
2023-04-26T03:53:20.722Z,1.50
2023-04-26T03:55:51.938Z,0.90
2023-04-26T03:58:22.812Z,1.40
2023-04-26T04:00:57.172Z,1.50
2023-04-26T04:03:30.207Z,1.40
2023-04-26T04:06:01.074Z,1.50
2023-04-26T04:08:31.955Z,1.60
2023-04-26T04:11:02.865Z,1.10
2023-04-26T04:13:33.955Z,1.50
2023-04-26T04:16:04.960Z,1.10
2023-04-26T04:18:35.688Z,1.40
2023-04-26T04:21:06.704Z,1.40
2023-04-26T04:23:37.617Z,1.10
2023-04-26T04:26:12.847Z,1.10
2023-04-26T04:28:45.612Z,1.00
2023-04-26T04:31:17.483Z,1.10
2023-04-26T04:33:49.038Z,1.20
2023-04-26T04:36:19.643Z,1.40
2023-04-26T04:38:50.752Z,1.10
2023-04-26T04:41:23.580Z,1.20
2023-04-26T04:43:55.171Z,1.20
2023-04-26T04:46:26.411Z,1.20
2023-04-26T04:48:57.492Z,1.60
2023-04-26T04:51:28.054Z,2.20
2023-04-26T04:54:00.179Z,1.00
2023-04-26T04:56:30.874Z,1.40
2023-04-26T04:59:01.920Z,1.10
2023-04-26T05:01:33.734Z,1.40
2023-04-26T05:04:08.825Z,1.30
2023-04-26T05:06:39.760Z,0.90
2023-04-26T05:09:11.409Z,1.30
2023-04-26T05:11:42.183Z,1.50
2023-04-26T05:14:14.764Z,1.20
2023-04-26T05:16:46.161Z,1.10
2023-04-26T05:19:17.003Z,1.20
2023-04-26T05:21:48.433Z,1.10
2023-04-26T05:24:19.031Z,1.50
2023-04-26T05:26:49.983Z,1.00
2023-04-26T05:29:33.487Z,0.90
2023-04-26T05:32:18.180Z,1.30
2023-04-26T05:35:12.141Z,1.40
2023-04-26T05:37:43.244Z,1.50
2023-04-26T05:40:15.905Z,1.00
2023-04-26T05:42:47.043Z,2.30
2023-04-26T05:45:18.129Z,1.60
2023-04-26T05:47:49.105Z,1.20
2023-04-26T05:50:20.047Z,1.00
2023-04-26T05:52:51.696Z,1.00
2023-04-26T05:55:23.650Z,0.80
2023-04-26T05:57:54.574Z,0.80
2023-04-26T06:00:26.921Z,0.90
2023-04-26T06:02:58.331Z,0.70
2023-04-26T06:05:29.313Z,0.90
2023-04-26T06:08:01.683Z,0.70
2023-04-26T06:10:33.112Z,0.70
2023-04-26T06:13:04.061Z,0.70
2023-04-26T06:15:38.228Z,1.40
2023-04-26T06:18:09.460Z,0.70
2023-04-26T06:20:40.205Z,1.00
2023-04-26T06:23:11.496Z,0.80
2023-04-26T06:25:44.902Z,0.80
2023-04-26T06:28:17.579Z,0.90
2023-04-26T06:30:48.316Z,1.60
2023-04-26T06:33:19.804Z,0.80
2023-04-26T06:35:50.644Z,0.80
2023-04-26T06:38:21.705Z,0.80
2023-04-26T06:40:52.668Z,1.00
2023-04-26T06:43:23.429Z,0.90
2023-04-26T06:46:10.957Z,0.70
2023-04-26T06:48:45.713Z,0.50
2023-04-26T06:51:16.709Z,1.00
2023-04-26T06:53:48.387Z,0.80
2023-04-26T06:56:20.028Z,0.70
2023-04-26T06:59:03.466Z,0.60
2023-04-26T07:01:35.257Z,0.80
2023-04-26T07:04:07.925Z,2.40
2023-04-26T07:06:39.142Z,0.60
2023-04-26T07:09:10.274Z,0.70
2023-04-26T07:11:41.295Z,1.90
2023-04-26T07:14:13.571Z,1.00
2023-04-26T07:16:44.735Z,0.90
2023-04-26T07:19:15.528Z,0.90
2023-04-26T07:21:46.235Z,0.70
2023-04-26T07:24:16.961Z,0.80
2023-04-26T07:26:47.634Z,0.90
2023-04-26T07:29:18.956Z,0.70
2023-04-26T07:31:49.958Z,0.80
2023-04-26T07:34:20.711Z,0.70
2023-04-26T07:36:51.424Z,0.90
2023-04-26T07:39:22.179Z,0.50
2023-04-26T07:41:53.100Z,0.30
2023-04-26T07:44:23.758Z,0.80
2023-04-26T07:46:54.630Z,0.50
2023-04-26T07:49:25.395Z,1.00
2023-04-26T07:51:58.152Z,0.60
2023-04-26T07:54:28.939Z,0.60
2023-04-26T07:56:59.689Z,0.90
2023-04-26T07:59:30.390Z,0.70
2023-04-26T08:02:01.830Z,0.80
2023-04-26T08:04:36.790Z,0.60
2023-04-26T08:07:07.619Z,1.90
2023-04-26T08:09:38.322Z,0.70
2023-04-26T08:12:10.546Z,0.50
2023-04-26T08:14:41.299Z,0.40
2023-04-26T08:17:12.233Z,1.00
2023-04-26T08:19:43.359Z,0.70
2023-04-26T08:22:13.958Z,0.70
2023-04-26T08:24:48.290Z,0.50
2023-04-26T08:27:19.169Z,0.80
2023-04-26T08:29:50.314Z,0.70
2023-04-26T08:32:21.247Z,0.50
2023-04-26T08:34:51.994Z,0.80
2023-04-26T08:37:22.732Z,1.20
2023-04-26T08:39:53.484Z,1.00
2023-04-26T08:42:28.416Z,0.80
2023-04-26T08:45:05.029Z,0.70
2023-04-26T08:47:44.991Z,0.80
2023-04-26T08:50:17.059Z,0.80
2023-04-26T08:52:51.344Z,0.70
2023-04-26T08:55:23.059Z,1.80
2023-04-26T08:57:53.911Z,0.70
2023-04-26T09:00:25.827Z,0.70
2023-04-26T09:02:56.916Z,0.50
2023-04-26T09:05:28.002Z,0.80
2023-04-26T09:08:02.148Z,0.90
2023-04-26T09:10:33.391Z,0.60
2023-04-26T09:13:04.274Z,0.80
2023-04-26T09:15:35.658Z,0.80
2023-04-26T09:18:21.357Z,0.90
2023-04-26T09:21:06.384Z,1.00
2023-04-26T09:23:37.300Z,0.60
2023-04-26T09:26:22.429Z,0.70
2023-04-26T09:29:11.870Z,0.80
2023-04-26T09:31:46.368Z,0.90
2023-04-26T09:34:18.950Z,1.40
2023-04-26T09:36:56.123Z,0.60
2023-04-26T09:39:38.311Z,0.60
2023-04-26T09:42:11.327Z,0.60
2023-04-26T09:44:42.230Z,0.70
2023-04-26T09:47:13.695Z,0.50
2023-04-26T09:49:50.557Z,1.00
2023-04-26T09:52:21.872Z,0.50
2023-04-26T09:54:54.103Z,0.80
2023-04-26T09:57:25.457Z,0.90
2023-04-26T09:59:57.495Z,0.90
2023-04-26T10:02:30.145Z,0.60
2023-04-26T10:05:02.053Z,0.70
2023-04-26T10:07:33.609Z,0.40
2023-04-26T10:10:04.890Z,0.50
2023-04-26T10:12:37.554Z,0.60
2023-04-26T10:15:12.293Z,0.50
2023-04-26T10:17:43.186Z,0.50
2023-04-26T10:20:17.533Z,0.40
2023-04-26T10:22:53.011Z,0.50
2023-04-26T10:25:35.514Z,0.60
2023-04-26T10:28:06.973Z,0.80
2023-04-26T10:30:57.360Z,1.00
2023-04-26T10:33:28.580Z,0.50
2023-04-26T10:36:11.327Z,0.90
2023-04-26T10:38:44.205Z,0.90
2023-04-26T10:41:40.058Z,1.00
2023-04-26T10:44:41.301Z,1.80
2023-04-26T10:47:25.460Z,1.10
2023-04-26T10:50:06.193Z,0.70
2023-04-26T10:52:37.792Z,1.00
2023-04-26T10:55:10.383Z,0.60
2023-04-26T10:57:54.387Z,0.30
2023-04-26T11:00:35.491Z,1.30
2023-04-26T11:03:13.191Z,1.00
2023-04-26T11:05:55.459Z,0.80
2023-04-26T11:08:32.259Z,1.10
2023-04-26T11:11:11.093Z,0.80
2023-04-26T11:13:42.988Z,1.10
2023-04-26T11:16:14.922Z,1.10
2023-04-26T11:18:47.128Z,1.00
2023-04-26T11:21:19.663Z,0.60
2023-04-26T11:26:36.548Z,0.50
2023-04-26T11:29:13.519Z,1.30
2023-04-26T11:31:44.920Z,0.60
2023-04-26T11:34:16.968Z,0.90
2023-04-26T11:36:48.983Z,1.00
2023-04-26T11:39:20.588Z,1.10
2023-04-26T11:41:51.586Z,1.50
2023-04-26T11:44:23.031Z,0.80
2023-04-26T11:46:54.065Z,0.50
2023-04-26T11:49:25.382Z,1.60
2023-04-26T11:51:56.764Z,0.70
2023-04-26T11:54:34.101Z,1.00
2023-04-26T11:57:17.453Z,0.90
2023-04-26T11:59:48.588Z,0.90
2023-04-26T12:02:20.883Z,1.00
2023-04-26T12:05:01.734Z,0.90
2023-04-26T12:07:38.592Z,1.00
2023-04-26T12:10:18.812Z,0.50
2023-04-26T12:12:52.143Z,4.90
2023-04-26T12:15:25.746Z,12.40
2023-04-26T12:17:58.512Z,3.00
2023-04-26T12:20:35.673Z,1.60
2023-04-26T12:23:08.779Z,1.00
2023-04-26T12:25:41.395Z,1.40
2023-04-26T12:28:13.927Z,0.90
2023-04-26T12:30:44.904Z,1.10
2023-04-26T12:33:17.911Z,1.30
2023-04-26T12:35:49.436Z,1.10
2023-04-26T12:38:20.247Z,1.30
2023-04-26T12:40:51.400Z,1.00
2023-04-26T12:43:24.113Z,0.80
2023-04-26T12:45:54.889Z,1.60
2023-04-26T12:48:25.811Z,1.60
2023-04-26T12:50:56.836Z,1.30
2023-04-26T12:53:27.833Z,1.20
2023-04-26T12:55:58.672Z,1.30
2023-04-26T12:58:29.891Z,0.90
2023-04-26T13:01:00.733Z,0.80
2023-04-26T13:03:31.698Z,1.20
2023-04-26T13:06:02.847Z,0.80
2023-04-26T13:08:33.629Z,0.90
2023-04-26T13:11:04.721Z,1.00
2023-04-26T13:13:43.047Z,1.20
2023-04-26T13:16:15.350Z,1.00
2023-04-26T13:18:46.374Z,1.40
2023-04-26T13:21:17.145Z,0.70
2023-04-26T13:23:48.021Z,0.90
2023-04-26T13:26:18.660Z,0.90
2023-04-26T13:28:49.478Z,0.90
2023-04-26T13:31:21.123Z,1.00
2023-04-26T13:33:52.215Z,1.20
2023-04-26T13:36:22.994Z,1.30
2023-04-26T13:38:53.995Z,0.90
2023-04-26T13:41:24.904Z,1.30
2023-04-26T13:43:55.960Z,0.70
2023-04-26T13:46:26.607Z,1.60
2023-04-26T13:48:57.567Z,1.20
2023-04-26T13:51:30.553Z,0.90
2023-04-26T13:54:01.252Z,0.90
2023-04-26T13:56:31.911Z,1.10
2023-04-26T13:59:05.454Z,0.90
2023-04-26T14:01:37.663Z,1.30
2023-04-26T14:04:09.015Z,1.20
2023-04-26T14:06:39.796Z,1.70
2023-04-26T14:09:10.707Z,1.00
2023-04-26T14:11:41.349Z,0.40
2023-04-26T14:14:11.968Z,0.90
2023-04-26T14:16:42.663Z,1.10
2023-04-26T14:19:15.409Z,1.20
2023-04-26T14:21:46.523Z,0.80
2023-04-26T14:24:17.223Z,1.10
2023-04-26T14:26:47.831Z,1.30
2023-04-26T14:29:18.486Z,0.80
2023-04-26T14:31:49.272Z,1.30
2023-04-26T14:34:22.113Z,1.20
2023-04-26T14:36:52.900Z,1.50
2023-04-26T14:39:24.671Z,1.20
2023-04-26T14:41:56.797Z,1.20
2023-04-26T14:44:27.723Z,1.10
2023-04-26T14:46:58.407Z,0.90
2023-04-26T14:49:29.114Z,0.90
2023-04-26T14:51:59.968Z,1.10
2023-04-26T14:54:31.334Z,1.20
2023-04-26T14:57:02.729Z,1.20
2023-04-26T14:59:33.411Z,0.80
2023-04-26T15:02:04.329Z,0.80
2023-04-26T15:04:36.969Z,0.90
2023-04-26T15:07:13.066Z,1.20
2023-04-26T15:09:51.691Z,0.80
2023-04-26T15:12:22.459Z,1.30
2023-04-26T15:14:53.104Z,0.90
2023-04-26T15:17:27.306Z,1.40
2023-04-26T15:19:58.689Z,0.80
2023-04-26T15:22:29.472Z,1.20
2023-04-26T15:25:00.188Z,2.00
2023-04-26T15:27:31.158Z,1.10
2023-04-26T15:30:02.113Z,1.00
2023-04-26T15:32:32.896Z,1.20
2023-04-26T15:35:04.170Z,1.00
2023-04-26T15:37:38.020Z,0.80
2023-04-26T15:40:12.260Z,1.10
2023-04-26T15:42:43.050Z,1.10
2023-04-26T15:45:14.530Z,1.50
2023-04-26T15:47:45.769Z,0.90
2023-04-26T15:50:17.318Z,1.10
2023-04-26T15:52:48.033Z,1.40
2023-04-26T15:55:19.143Z,0.90
2023-04-26T15:57:50.038Z,1.10
2023-04-26T16:00:21.921Z,1.20
2023-04-26T16:02:52.806Z,1.80
2023-04-26T16:05:23.802Z,1.10
2023-04-26T16:07:54.555Z,0.60
2023-04-26T16:10:25.760Z,1.80
2023-04-26T16:12:56.658Z,1.20
2023-04-26T16:15:27.454Z,1.50
2023-04-26T16:17:58.336Z,1.40
2023-04-26T16:20:29.271Z,1.10
2023-04-26T16:23:01.467Z,1.70
2023-04-26T16:25:32.213Z,1.30
2023-04-26T16:28:03.107Z,2.80
2023-04-26T16:30:33.963Z,2.00
2023-04-26T16:33:10.089Z,1.30
2023-04-26T16:35:41.113Z,2.10
2023-04-26T16:38:11.917Z,1.70
2023-04-26T16:40:42.657Z,1.00
2023-04-26T16:43:14.405Z,0.70
2023-04-26T16:45:45.075Z,1.70
2023-04-26T16:48:16.074Z,1.60
2023-04-26T16:50:47.182Z,1.40
2023-04-26T16:53:18.264Z,1.10
2023-04-26T16:55:49.638Z,1.50
2023-04-26T16:58:20.570Z,1.70
2023-04-26T17:00:51.617Z,2.00
2023-04-26T17:03:24.181Z,3.00
2023-04-26T17:05:55.368Z,3.10
2023-04-26T17:08:27.253Z,7.30
2023-04-26T17:10:58.102Z,1.50
2023-04-26T17:13:32.585Z,1.30
2023-04-26T17:16:05.761Z,1.80
2023-04-26T17:18:36.573Z,1.80
2023-04-26T17:21:07.762Z,1.70
2023-04-26T17:23:38.420Z,1.00
2023-04-26T17:26:09.150Z,1.60
2023-04-26T17:28:39.938Z,1.00
2023-04-26T17:31:10.638Z,0.90
2023-04-26T17:33:43.186Z,1.50
2023-04-26T17:36:14.068Z,1.10
2023-04-26T17:38:44.990Z,1.00
2023-04-26T17:41:17.587Z,1.20
2023-04-26T17:43:48.625Z,1.30
2023-04-26T17:46:19.471Z,1.40
2023-04-26T17:48:50.578Z,0.80
2023-04-26T17:51:21.256Z,1.40
2023-04-26T17:53:52.255Z,1.50
2023-04-26T17:56:23.081Z,1.10
2023-04-26T17:58:54.021Z,0.90
2023-04-26T18:01:24.974Z,1.20
2023-04-26T18:03:55.858Z,1.30
2023-04-26T18:06:26.900Z,1.40
2023-04-26T18:09:00.435Z,1.30
2023-04-26T18:11:31.198Z,2.60
2023-04-26T18:14:02.020Z,1.60
2023-04-26T18:16:32.663Z,1.40
2023-04-26T18:19:03.522Z,1.60
2023-04-26T18:21:34.217Z,1.40
2023-04-26T18:24:05.440Z,1.40
2023-04-26T18:26:36.915Z,1.20
2023-04-26T18:29:08.038Z,1.10
2023-04-26T18:31:39.173Z,1.50
2023-04-26T18:34:11.557Z,1.40
2023-04-26T18:36:42.406Z,1.10
2023-04-26T18:39:13.057Z,1.20
2023-04-26T18:41:43.977Z,1.20
2023-04-26T18:44:14.916Z,1.10
2023-04-26T18:46:45.758Z,1.10
2023-04-26T18:49:16.723Z,1.80
2023-04-26T18:51:47.697Z,1.40
2023-04-26T18:54:18.336Z,1.60
2023-04-26T18:56:49.031Z,1.70
2023-04-26T18:59:19.912Z,1.80
2023-04-26T19:01:50.683Z,1.50
2023-04-26T19:04:23.635Z,1.50
2023-04-26T19:06:57.871Z,1.40
2023-04-26T19:09:28.689Z,1.40
2023-04-26T19:11:59.494Z,1.40
2023-04-26T19:14:30.572Z,9.50
2023-04-26T19:17:02.143Z,31.70
2023-04-26T19:19:33.052Z,8.80
2023-04-26T19:22:04.054Z,27.90
2023-04-26T19:24:34.803Z,20.90
2023-04-26T19:27:05.700Z,17.90
2023-04-26T19:29:36.442Z,4.20
2023-04-26T19:32:07.867Z,11.10
2023-04-26T19:34:40.720Z,6.00
2023-04-26T19:37:11.456Z,9.60
2023-04-26T19:39:42.098Z,11.40
2023-04-26T19:42:12.933Z,3.90
2023-04-26T19:44:43.740Z,3.30
2023-04-26T19:47:15.070Z,6.80
2023-04-26T19:49:45.998Z,13.60
2023-04-26T19:52:17.247Z,6.60
2023-04-26T19:54:48.259Z,6.50
2023-04-26T19:57:19.227Z,13.20
2023-04-26T19:59:49.954Z,5.70
2023-04-26T20:02:20.861Z,3.50
2023-04-26T20:04:52.326Z,2.20
2023-04-26T20:07:23.008Z,10.20
2023-04-26T20:09:53.726Z,7.10
2023-04-26T20:12:24.475Z,8.70
2023-04-26T20:14:55.068Z,4.90
2023-04-26T20:17:26.005Z,2.90
2023-04-26T20:19:57.328Z,2.00
2023-04-26T20:22:28.182Z,2.20
2023-04-26T20:24:58.972Z,2.20
2023-04-26T20:27:29.729Z,1.80
2023-04-26T20:30:00.491Z,1.50
2023-04-26T20:32:31.188Z,1.90
2023-04-26T20:35:01.836Z,2.20
2023-04-26T20:37:32.733Z,2.00
2023-04-26T20:40:04.948Z,1.90
2023-04-26T20:42:35.621Z,3.40
2023-04-26T20:45:07.797Z,2.40
2023-04-26T20:47:38.547Z,3.00
2023-04-26T20:50:11.479Z,2.90
2023-04-26T20:52:42.113Z,2.20
2023-04-26T20:55:12.994Z,2.70
2023-04-26T20:57:43.763Z,2.80
2023-04-26T21:00:16.181Z,3.00
2023-04-26T21:02:47.008Z,3.10
2023-04-26T21:05:17.902Z,2.60
2023-04-26T21:07:48.567Z,3.20
2023-04-26T21:10:19.417Z,2.90
2023-04-26T21:12:50.092Z,3.60
2023-04-26T21:15:21.132Z,2.10
2023-04-26T21:17:51.869Z,3.00
2023-04-26T21:20:22.980Z,2.70
2023-04-26T21:22:53.724Z,2.70
2023-04-26T21:25:24.404Z,3.10
2023-04-26T21:27:55.057Z,3.10
2023-04-26T21:30:25.819Z,2.60
2023-04-26T21:32:56.546Z,2.40
2023-04-26T21:35:27.308Z,3.10
2023-04-26T21:37:57.937Z,2.80
2023-04-26T21:40:28.685Z,3.10
2023-04-26T21:43:05.224Z,3.20
2023-04-26T21:45:36.375Z,3.20
2023-04-26T21:48:08.053Z,2.60
2023-04-26T21:50:38.802Z,3.00
2023-04-26T21:53:09.546Z,2.30
2023-04-26T21:55:40.835Z,2.90
2023-04-26T21:58:11.567Z,2.90
2023-04-26T22:00:42.291Z,2.60
2023-04-26T22:03:13.359Z,3.10
2023-04-26T22:05:44.250Z,2.90
2023-04-26T22:08:15.125Z,2.60
2023-04-26T22:10:46.168Z,2.70
2023-04-26T22:13:17.018Z,3.10
2023-04-26T22:15:47.696Z,3.10
2023-04-26T22:18:18.690Z,2.40
2023-04-26T22:20:49.356Z,3.00
2023-04-26T22:23:20.113Z,2.60
2023-04-26T22:25:50.934Z,3.10
2023-04-26T22:28:21.704Z,2.50
2023-04-26T22:30:52.424Z,3.00
2023-04-26T22:33:23.068Z,2.40
2023-04-26T22:35:57.832Z,2.50
2023-04-26T22:38:28.930Z,2.50
2023-04-26T22:40:59.768Z,2.80
2023-04-26T22:43:30.499Z,3.10
2023-04-26T22:46:01.262Z,3.10
2023-04-26T22:48:32.060Z,2.90
2023-04-26T22:51:03.091Z,3.40
2023-04-26T22:53:33.935Z,3.30
2023-04-26T22:56:05.024Z,2.80
2023-04-26T22:58:35.761Z,1.90
2023-04-26T23:01:06.661Z,2.60
2023-04-26T23:03:39.287Z,2.10
2023-04-26T23:06:10.690Z,2.50
2023-04-26T23:08:41.537Z,3.10
2023-04-26T23:11:12.305Z,2.70
2023-04-26T23:13:43.008Z,2.50
2023-04-26T23:16:13.640Z,2.70
2023-04-26T23:18:44.498Z,2.70
2023-04-26T23:21:15.169Z,2.60
2023-04-26T23:23:45.848Z,2.50
2023-04-26T23:26:16.501Z,2.80
2023-04-26T23:28:47.150Z,3.20
2023-04-26T23:31:17.912Z,3.00
2023-04-26T23:33:48.622Z,2.50
2023-04-26T23:36:19.307Z,2.60
2023-04-26T23:38:50.068Z,3.10
2023-04-26T23:41:20.769Z,3.20
2023-04-26T23:43:51.537Z,2.40
2023-04-26T23:46:22.213Z,3.50
2023-04-26T23:48:52.866Z,2.50
2023-04-26T23:51:23.563Z,3.10
2023-04-26T23:53:54.396Z,3.10
2023-04-26T23:56:24.993Z,2.80
2023-04-26T23:58:56.154Z,2.60
